Weather at Norwood Memorial Airport

Public forecast

Using degrees Fahrenheit for public forecast. Weather courtesy of forecast.io.

Current aviation weather report (METAR) for Norwood Memorial Airport

Retrieved 2020/09/29 06:44 UTC (12 minutes ago):

KOWD 290644Z AUTO 20005KT 10SM SCT012 19/17 A2995 RMK AO2 T01940167

Closest aviation forecast (TAF) to Norwood Memorial Airport

Closest forecast is General Edward Lawrence Logan International Airport, 12.8 nm (23.7 km) NE. Retrieved 2020/09/29 06:44 UTC (12 minutes ago):

TAF KBOS 290540Z 2906/3012 20006KT P6SM OVC008 FM291200 18005KT P6SM OVC015 FM291500 18006KT P6SM SCT150 FM300100 17007KT 5SM BR BKN020 FM300400 16007KT 3SM BR VCSH OVC008 FM301100 18018G30KT 3SM SHRA BR OVC010